createdAt,value
2018-03-08T00:00:57.567Z,52.30
2018-03-08T00:03:26.587Z,52.30
2018-03-08T00:05:55.595Z,52.40
2018-03-08T00:08:25.404Z,52.60
2018-03-08T00:10:55.164Z,52.40
2018-03-08T00:13:24.190Z,52.40
2018-03-08T00:15:53.239Z,52.30
2018-03-08T00:18:22.244Z,52.40
2018-03-08T00:20:51.241Z,52.30
2018-03-08T00:23:20.302Z,52.40
2018-03-08T00:25:49.296Z,52.50
2018-03-08T00:28:18.306Z,52.50
2018-03-08T00:30:47.527Z,52.50
2018-03-08T00:33:16.575Z,52.40
2018-03-08T00:35:45.590Z,52.40
2018-03-08T00:38:14.617Z,52.30
2018-03-08T00:40:43.643Z,52.40
2018-03-08T00:43:13.461Z,52.50
2018-03-08T00:45:43.224Z,52.60
2018-03-08T00:48:12.228Z,52.50
2018-03-08T00:50:42.204Z,53.30
2018-03-08T00:53:11.210Z,52.60
2018-03-08T00:55:40.208Z,52.70
2018-03-08T00:58:09.357Z,52.80
2018-03-08T01:00:39.138Z,52.90
2018-03-08T01:03:08.150Z,52.90
2018-03-08T01:05:37.974Z,53.00
2018-03-08T01:08:07.760Z,53.00
2018-03-08T01:10:36.771Z,52.90
2018-03-08T01:13:06.565Z,52.80
2018-03-08T01:15:35.567Z,52.80
2018-03-08T01:18:05.403Z,52.70
2018-03-08T01:20:34.400Z,52.70
2018-03-08T01:23:03.411Z,52.60
2018-03-08T01:25:32.479Z,52.70
2018-03-08T01:28:02.254Z,52.60
2018-03-08T01:30:31.262Z,52.50
2018-03-08T01:33:01.065Z,52.40
2018-03-08T01:35:30.111Z,53.00
2018-03-08T01:37:59.111Z,52.30
2018-03-08T01:40:28.179Z,52.10
2018-03-08T01:42:57.940Z,53.20
2018-03-08T01:45:26.945Z,53.10
2018-03-08T01:47:56.017Z,53.70
2018-03-08T01:50:25.053Z,54.10
2018-03-08T01:52:54.828Z,55.20
2018-03-08T01:55:23.868Z,54.50
2018-03-08T01:57:57.173Z,54.90
2018-03-08T02:00:26.969Z,54.80
2018-03-08T02:02:56.732Z,54.80
2018-03-08T02:05:25.884Z,54.80
2018-03-08T02:07:55.644Z,54.50
2018-03-08T02:10:24.652Z,54.50
2018-03-08T02:12:53.727Z,54.50
2018-03-08T02:15:22.725Z,54.50
2018-03-08T02:17:51.762Z,54.40
2018-03-08T02:20:21.589Z,54.40
2018-03-08T02:22:50.592Z,54.50
2018-03-08T02:25:19.606Z,54.40
2018-03-08T02:27:48.642Z,54.30
2018-03-08T02:30:17.662Z,54.30
2018-03-08T02:32:46.703Z,54.20
2018-03-08T02:35:15.755Z,54.30
2018-03-08T02:37:44.820Z,54.30
2018-03-08T02:40:14.616Z,54.10
2018-03-08T02:42:43.784Z,54.20
2018-03-08T02:45:12.809Z,54.10
2018-03-08T02:47:41.842Z,54.00
2018-03-08T02:50:10.902Z,53.90
2018-03-08T02:52:39.966Z,53.80
2018-03-08T02:55:08.986Z,53.70
2018-03-08T02:57:37.995Z,53.50
2018-03-08T03:00:07.804Z,53.50
2018-03-08T03:02:36.816Z,53.50
2018-03-08T03:05:05.885Z,53.50
2018-03-08T03:07:34.886Z,53.40
2018-03-08T03:10:03.887Z,53.30
2018-03-08T03:12:33.809Z,53.20
2018-03-08T03:15:03.582Z,53.20
2018-03-08T03:17:32.595Z,53.10
2018-03-08T03:20:02.439Z,53.10
2018-03-08T03:22:31.442Z,53.10
2018-03-08T03:25:00.451Z,53.10
2018-03-08T03:27:30.453Z,53.10
2018-03-08T03:29:59.467Z,53.40
2018-03-08T03:32:28.486Z,53.60
2018-03-08T03:34:57.526Z,53.70
2018-03-08T03:37:26.550Z,53.70
2018-03-08T03:39:55.602Z,53.90
2018-03-08T03:42:24.610Z,53.90
2018-03-08T03:44:53.698Z,53.90
2018-03-08T03:47:22.706Z,54.10
2018-03-08T03:49:51.703Z,54.70
2018-03-08T03:52:20.746Z,55.00
2018-03-08T03:54:49.777Z,55.30
2018-03-08T03:57:18.791Z,55.70
2018-03-08T03:59:47.846Z,55.90
2018-03-08T04:02:17.613Z,56.50
2018-03-08T04:04:46.655Z,56.50
2018-03-08T04:07:15.671Z,56.40
2018-03-08T04:09:44.700Z,56.30
2018-03-08T04:12:13.746Z,56.50
2018-03-08T04:14:43.527Z,56.50
2018-03-08T04:17:13.300Z,56.40
2018-03-08T04:19:42.347Z,56.30
2018-03-08T04:22:12.122Z,56.50
2018-03-08T04:24:41.431Z,56.40
2018-03-08T04:27:10.440Z,56.60
2018-03-08T04:29:40.243Z,56.40
2018-03-08T04:32:09.287Z,56.40
2018-03-08T04:34:38.289Z,56.90
2018-03-08T04:37:08.286Z,56.10
2018-03-08T04:39:37.286Z,56.00
2018-03-08T04:42:06.352Z,55.70
2018-03-08T04:44:36.118Z,55.50
2018-03-08T04:47:05.136Z,55.30
2018-03-08T04:49:36.146Z,55.30
2018-03-08T04:52:05.151Z,55.20
2018-03-08T04:54:34.155Z,55.40
2018-03-08T04:57:03.203Z,55.50
2018-03-08T04:59:32.200Z,55.40
2018-03-08T05:02:01.239Z,55.40
2018-03-08T05:04:30.246Z,55.30
2018-03-08T05:07:00.051Z,55.40
2018-03-08T05:09:29.051Z,55.40
2018-03-08T05:11:58.863Z,55.40
2018-03-08T05:14:28.650Z,55.30
2018-03-08T05:16:59.679Z,55.30
2018-03-08T05:19:28.692Z,55.30
2018-03-08T05:21:57.710Z,55.60
2018-03-08T05:24:26.848Z,55.80
2018-03-08T05:26:57.828Z,55.90
2018-03-08T05:29:26.884Z,55.90
2018-03-08T05:31:55.927Z,56.00
2018-03-08T05:34:25.706Z,56.60
2018-03-08T05:36:54.746Z,56.60
2018-03-08T05:39:23.760Z,56.60
2018-03-08T05:41:52.799Z,56.70
2018-03-08T05:44:21.806Z,56.60
2018-03-08T05:46:51.964Z,57.00
2018-03-08T05:49:20.986Z,56.30
2018-03-08T05:51:50.006Z,56.00
2018-03-08T05:54:22.332Z,56.10
2018-03-08T05:56:51.336Z,56.20
2018-03-08T05:59:20.380Z,56.80
2018-03-08T06:01:50.154Z,57.10
2018-03-08T06:04:19.210Z,57.10
2018-03-08T06:06:48.230Z,57.50
2018-03-08T06:09:22.625Z,57.60
2018-03-08T06:11:51.655Z,57.70
2018-03-08T06:14:20.661Z,58.30
2018-03-08T06:16:49.702Z,58.80
2018-03-08T06:19:21.419Z,59.10
2018-03-08T06:21:50.505Z,59.30
2018-03-08T06:24:20.506Z,59.40
2018-03-08T06:26:49.603Z,59.60
2018-03-08T06:29:18.606Z,59.40
2018-03-08T06:31:47.606Z,59.70
2018-03-08T06:34:16.650Z,59.60
2018-03-08T06:36:45.662Z,59.40
2018-03-08T06:39:14.727Z,59.50
2018-03-08T06:41:43.749Z,59.70
2018-03-08T06:44:12.766Z,59.70
2018-03-08T06:46:55.218Z,59.60
2018-03-08T06:49:24.995Z,59.50
2018-03-08T06:51:54.019Z,59.70
2018-03-08T06:54:23.836Z,59.30
2018-03-08T06:56:55.985Z,59.30
2018-03-08T06:59:25.071Z,58.80
2018-03-08T07:01:54.559Z,59.00
2018-03-08T07:04:23.574Z,57.90
2018-03-08T07:06:52.623Z,57.50
2018-03-08T07:09:22.833Z,56.70
2018-03-08T07:11:53.095Z,55.60
2018-03-08T07:14:22.207Z,55.60
2018-03-08T07:16:51.381Z,54.70
2018-03-08T07:19:20.386Z,53.30
2018-03-08T07:21:50.486Z,51.70
2018-03-08T07:24:20.259Z,50.60
2018-03-08T07:26:49.302Z,50.60
2018-03-08T07:29:18.361Z,49.60
2018-03-08T07:34:14.331Z,47.60
2018-03-08T07:36:43.371Z,47.60
2018-03-08T07:39:12.402Z,47.10
2018-03-08T07:41:41.474Z,47.00
2018-03-08T07:44:10.499Z,45.90
2018-03-08T07:46:40.300Z,44.70
2018-03-08T07:49:10.134Z,44.00
2018-03-08T07:51:39.166Z,44.00
2018-03-08T07:54:08.182Z,42.80
2018-03-08T07:56:38.019Z,40.30
2018-03-08T07:59:07.037Z,40.10
2018-03-08T08:01:38.138Z,39.70
2018-03-08T08:04:07.975Z,38.00
2018-03-08T08:06:54.822Z,37.90
2018-03-08T08:09:23.834Z,38.30
2018-03-08T08:11:52.883Z,36.80
2018-03-08T08:14:21.902Z,36.90
2018-03-08T08:16:50.937Z,36.70
2018-03-08T08:19:20.726Z,34.60
2018-03-08T08:21:49.775Z,34.50
2018-03-08T08:24:18.802Z,34.40
2018-03-08T08:26:47.866Z,32.70
2018-03-08T08:29:16.878Z,32.20
2018-03-08T08:31:45.922Z,31.90
2018-03-08T08:34:15.746Z,30.30
2018-03-08T08:36:44.795Z,30.30
2018-03-08T08:39:13.817Z,29.50
2018-03-08T08:41:42.822Z,29.60
2018-03-08T08:44:11.886Z,28.90
2018-03-08T08:46:40.906Z,28.00
2018-03-08T08:49:09.925Z,28.90
2018-03-08T08:51:38.977Z,28.70
2018-03-08T08:54:08.034Z,28.00
2018-03-08T08:56:37.053Z,27.60
2018-03-08T08:59:06.102Z,26.90
2018-03-08T09:01:35.127Z,26.30
2018-03-08T09:04:04.186Z,26.00
2018-03-08T09:06:33.198Z,26.70
2018-03-08T09:09:02.271Z,25.70
2018-03-08T09:11:31.298Z,25.60
2018-03-08T09:14:00.314Z,25.70
2018-03-08T09:16:29.385Z,25.10
2018-03-08T09:18:58.397Z,23.80
2018-03-08T09:21:27.413Z,23.50
2018-03-08T09:23:57.227Z,23.80
2018-03-08T09:26:27.014Z,22.20
2018-03-08T09:28:56.104Z,22.20
2018-03-08T09:31:25.114Z,22.70
2018-03-08T09:33:54.176Z,22.60
2018-03-08T09:36:23.951Z,21.70
2018-03-08T09:38:53.005Z,21.60
2018-03-08T09:41:22.025Z,21.90
2018-03-08T09:43:51.831Z,21.20
2018-03-08T09:46:21.617Z,20.80
2018-03-08T09:48:50.693Z,20.60
2018-03-08T09:51:19.702Z,20.50
2018-03-08T09:53:48.723Z,20.00
2018-03-08T09:56:18.557Z,19.90
2018-03-08T09:58:47.913Z,19.80
2018-03-08T10:01:17.070Z,19.60
2018-03-08T10:03:46.103Z,19.20
2018-03-08T10:06:15.299Z,19.40
2018-03-08T10:08:44.318Z,18.50
2018-03-08T10:11:13.342Z,18.90
2018-03-08T10:13:42.433Z,18.50
2018-03-08T10:16:11.454Z,17.50
2018-03-08T10:18:40.468Z,16.90
2018-03-08T10:21:09.536Z,16.50
2018-03-08T10:23:38.542Z,16.10
2018-03-08T10:26:07.597Z,16.20
2018-03-08T10:28:37.804Z,18.40
2018-03-08T10:31:06.820Z,18.40
2018-03-08T10:33:35.835Z,18.80
2018-03-08T10:36:04.883Z,19.40
2018-03-08T10:38:34.670Z,21.70
2018-03-08T10:41:03.744Z,21.50
2018-03-08T10:43:32.742Z,22.70
2018-03-08T10:46:01.778Z,23.50
2018-03-08T10:48:31.594Z,24.30
2018-03-08T10:51:00.600Z,24.10
2018-03-08T10:53:29.614Z,24.40
2018-03-08T10:55:58.673Z,25.00
2018-03-08T10:58:28.456Z,24.70
2018-03-08T11:00:57.885Z,24.60
2018-03-08T11:03:48.354Z,25.00
2018-03-08T11:09:20.629Z,23.00
2018-03-08T11:11:49.682Z,20.50
2018-03-08T11:14:18.729Z,18.80
2018-03-08T11:16:47.748Z,17.40
2018-03-08T11:19:17.553Z,18.20
2018-03-08T11:21:47.339Z,18.30
2018-03-08T11:24:16.377Z,18.30
2018-03-08T11:26:45.422Z,17.50
2018-03-08T11:29:14.470Z,17.70
2018-03-08T11:31:43.530Z,17.80
2018-03-08T11:34:12.602Z,18.70
2018-03-08T11:36:41.631Z,19.80
2018-03-08T11:39:11.418Z,18.80
2018-03-08T11:41:40.502Z,18.80
2018-03-08T11:44:09.511Z,17.40
2018-03-08T11:46:38.527Z,16.20
2018-03-08T11:49:08.350Z,17.00
2018-03-08T11:51:37.375Z,17.00
2018-03-08T11:54:06.391Z,17.20
2018-03-08T11:56:35.475Z,15.80
2018-03-08T11:59:04.487Z,15.50
2018-03-08T12:01:33.515Z,14.90
2018-03-08T12:04:03.321Z,14.50
2018-03-08T12:06:32.370Z,14.00
2018-03-08T12:09:01.377Z,13.90
2018-03-08T12:11:30.405Z,12.70
2018-03-08T12:14:00.230Z,13.40
2018-03-08T12:16:29.245Z,13.40
2018-03-08T12:18:58.273Z,14.40
2018-03-08T12:21:27.329Z,15.90
2018-03-08T12:23:56.335Z,17.20
2018-03-08T12:26:25.350Z,18.10
2018-03-08T12:28:54.503Z,19.60
2018-03-08T12:31:23.527Z,20.50
2018-03-08T12:33:52.544Z,21.10
2018-03-08T12:38:55.782Z,22.70
2018-03-08T12:41:24.798Z,23.30
2018-03-08T12:43:53.874Z,24.10
2018-03-08T12:46:22.890Z,25.00
2018-03-08T12:48:51.947Z,25.50
2018-03-08T12:51:20.982Z,26.20
2018-03-08T12:53:50.025Z,27.20
2018-03-08T12:56:19.803Z,27.90
2018-03-08T12:58:48.862Z,27.90
2018-03-08T13:01:17.878Z,28.10
2018-03-08T13:03:46.952Z,28.40
2018-03-08T13:06:15.985Z,29.00
2018-03-08T13:08:45.038Z,29.10
2018-03-08T13:11:14.067Z,29.40
2018-03-08T13:13:43.155Z,29.20
2018-03-08T13:16:12.167Z,29.20
2018-03-08T13:18:41.244Z,27.50
2018-03-08T13:21:10.250Z,27.00
2018-03-08T13:23:39.306Z,26.90
2018-03-08T13:26:08.323Z,25.10
2018-03-08T13:28:37.372Z,23.20
2018-03-08T13:31:07.153Z,18.40
2018-03-08T13:33:36.198Z,18.40
2018-03-08T13:36:05.246Z,16.70
2018-03-08T13:38:34.305Z,16.10
2018-03-08T13:41:03.377Z,15.20
2018-03-08T13:43:32.438Z,14.70
2018-03-08T13:46:02.591Z,15.40
2018-03-08T13:48:31.651Z,15.00
2018-03-08T13:51:01.439Z,13.80
2018-03-08T13:53:30.482Z,13.70
2018-03-08T13:55:59.502Z,13.90
2018-03-08T13:58:28.545Z,13.40
2018-03-08T14:00:58.329Z,12.50
2018-03-08T14:03:27.354Z,12.50
2018-03-08T14:05:57.185Z,13.00
2018-03-08T14:08:26.207Z,13.00
2018-03-08T14:10:55.239Z,12.50
2018-03-08T14:13:24.288Z,12.60
2018-03-08T14:15:53.313Z,12.70
2018-03-08T14:18:22.392Z,12.80
2018-03-08T14:20:51.410Z,12.30
2018-03-08T14:23:20.429Z,12.40
2018-03-08T14:25:49.519Z,12.80
2018-03-08T14:28:18.569Z,13.60
2018-03-08T14:30:47.591Z,14.10
2018-03-08T14:33:16.645Z,14.60
2018-03-08T14:35:45.679Z,15.10
2018-03-08T14:38:14.741Z,16.10
2018-03-08T14:40:46.965Z,17.60
2018-03-08T14:43:16.020Z,19.00
2018-03-08T14:45:45.062Z,19.90
2018-03-08T14:48:14.111Z,21.10
2018-03-08T14:50:43.130Z,21.70
2018-03-08T14:53:12.954Z,22.70
2018-03-08T14:55:42.945Z,22.60
2018-03-08T14:58:12.358Z,22.90
2018-03-08T15:00:42.142Z,23.30
2018-03-08T15:03:11.165Z,23.20
2018-03-08T15:05:41.091Z,23.60
2018-03-08T15:08:10.871Z,24.00
2018-03-08T15:10:39.880Z,23.90
2018-03-08T15:13:09.694Z,24.50
2018-03-08T15:15:39.475Z,24.80
2018-03-08T15:18:08.524Z,24.70
2018-03-08T15:20:37.550Z,25.10
2018-03-08T15:23:07.017Z,25.00
2018-03-08T15:25:36.033Z,25.40
2018-03-08T15:28:05.036Z,25.40
2018-03-08T15:30:34.086Z,25.60
2018-03-08T15:33:03.861Z,24.30
2018-03-08T15:35:32.935Z,24.30
2018-03-08T15:38:02.092Z,23.20
2018-03-08T15:40:31.865Z,21.50
2018-03-08T15:43:00.891Z,21.50
2018-03-08T15:45:29.956Z,21.00
2018-03-08T15:47:58.990Z,21.60
2018-03-08T15:50:28.015Z,21.90
2018-03-08T15:52:57.069Z,23.40
2018-03-08T15:55:26.881Z,24.90
2018-03-08T15:57:56.661Z,25.80
2018-03-08T16:00:25.702Z,25.80
2018-03-08T16:02:54.713Z,26.70
2018-03-08T16:05:23.767Z,27.30
2018-03-08T16:11:19.454Z,28.40
2018-03-08T16:13:48.489Z,28.90
2018-03-08T16:16:18.270Z,29.50
2018-03-08T16:18:47.318Z,29.40
2018-03-08T16:21:16.354Z,29.60
2018-03-08T16:23:45.440Z,29.80
2018-03-08T16:26:14.433Z,29.90
2018-03-08T16:28:43.520Z,30.30
2018-03-08T16:31:12.551Z,30.40
2018-03-08T16:33:41.706Z,30.70
2018-03-08T16:36:10.724Z,30.70
2018-03-08T16:38:39.755Z,31.10
2018-03-08T16:41:09.588Z,31.90
2018-03-08T16:43:38.622Z,31.90
2018-03-08T16:46:08.582Z,32.20
2018-03-08T16:48:38.432Z,32.90
2018-03-08T16:51:07.457Z,32.90
2018-03-08T16:53:39.192Z,33.30
2018-03-08T16:56:08.344Z,33.50
2018-03-08T16:58:37.428Z,34.30
2018-03-08T17:01:06.570Z,34.90
2018-03-08T17:03:35.610Z,35.40
2018-03-08T17:06:04.727Z,36.10
2018-03-08T17:08:33.782Z,36.90
2018-03-08T17:11:02.811Z,37.50
2018-03-08T17:13:32.751Z,38.80
2018-03-08T17:16:02.015Z,38.20
2018-03-08T17:18:30.983Z,38.70
2018-03-08T17:21:00.147Z,39.30
2018-03-08T17:23:31.205Z,39.60
2018-03-08T17:26:00.302Z,39.90
2018-03-08T17:28:29.380Z,40.20
2018-03-08T17:30:58.461Z,40.60
2018-03-08T17:33:27.535Z,41.00
2018-03-08T17:35:56.656Z,41.30
2018-03-08T17:38:25.948Z,41.70
2018-03-08T17:40:55.309Z,41.80
2018-03-08T17:43:28.286Z,41.90
2018-03-08T17:45:57.376Z,42.10
2018-03-08T17:48:26.628Z,42.30
2018-03-08T17:50:58.744Z,42.50
2018-03-08T17:53:27.857Z,42.70
2018-03-08T17:55:57.038Z,42.90
2018-03-08T17:58:26.115Z,43.10
2018-03-08T18:00:55.245Z,43.30
2018-03-08T18:03:30.455Z,43.50
2018-03-08T18:06:04.336Z,43.80
2018-03-08T18:08:34.362Z,43.90
2018-03-08T18:11:03.801Z,44.20
2018-03-08T18:13:33.976Z,44.50
2018-03-08T18:16:03.259Z,44.60
2018-03-08T18:18:32.585Z,44.90
2018-03-08T18:21:02.111Z,45.20
2018-03-08T18:23:35.632Z,45.50
2018-03-08T18:26:09.379Z,45.60
2018-03-08T18:28:39.227Z,45.90
2018-03-08T18:31:08.343Z,46.10
2018-03-08T18:33:51.995Z,46.30
2018-03-08T18:36:21.326Z,46.50
2018-03-08T18:38:54.384Z,46.60
2018-03-08T18:41:26.589Z,46.80
2018-03-08T18:43:58.575Z,47.10
2018-03-08T18:46:29.878Z,47.10
2018-03-08T18:48:59.889Z,47.30
2018-03-08T18:51:28.930Z,47.30
2018-03-08T18:53:57.925Z,47.50
2018-03-08T18:56:27.704Z,47.70
2018-03-08T18:58:56.750Z,47.70
2018-03-08T19:01:25.765Z,47.80
2018-03-08T19:03:55.645Z,48.00
2018-03-08T19:06:24.703Z,48.10
2018-03-08T19:08:53.753Z,48.30
2018-03-08T19:11:22.872Z,48.30
2018-03-08T19:13:54.255Z,48.60
2018-03-08T19:16:23.481Z,49.20
2018-03-08T19:18:52.920Z,48.60
2018-03-08T19:21:22.132Z,48.80
2018-03-08T19:23:51.948Z,49.20
2018-03-08T19:26:25.423Z,49.10
2018-03-08T19:28:54.464Z,49.40
2018-03-08T19:31:24.426Z,49.50
2018-03-08T19:33:55.438Z,49.60
2018-03-08T19:36:24.450Z,49.60
2018-03-08T19:38:53.456Z,49.70
2018-03-08T19:41:22.514Z,49.60
2018-03-08T19:43:51.522Z,49.60
2018-03-08T19:46:20.554Z,49.80
2018-03-08T19:48:49.626Z,50.00
2018-03-08T19:51:22.544Z,50.00
2018-03-08T19:53:52.367Z,50.30
2018-03-08T19:56:21.398Z,50.30
2018-03-08T19:58:50.445Z,50.40
2018-03-08T20:01:20.475Z,50.50
2018-03-08T20:03:50.363Z,50.60
2018-03-08T20:06:19.516Z,50.60
2018-03-08T20:08:50.539Z,51.40
2018-03-08T20:11:20.214Z,50.80
2018-03-08T20:13:50.770Z,51.00
2018-03-08T20:16:19.816Z,50.90
2018-03-08T20:18:49.210Z,51.10
2018-03-08T20:21:19.192Z,51.40
2018-03-08T20:23:48.942Z,51.50
2018-03-08T20:26:18.004Z,51.40
2018-03-08T20:28:53.886Z,51.70
2018-03-08T20:31:22.930Z,52.30
2018-03-08T20:33:51.948Z,51.60
2018-03-08T20:36:28.381Z,51.60
2018-03-08T20:38:58.150Z,51.90
2018-03-08T20:41:27.226Z,51.90
2018-03-08T20:43:56.247Z,51.90
2018-03-08T20:46:25.267Z,52.00
2018-03-08T20:49:01.295Z,52.30
2018-03-08T20:51:30.410Z,52.30
2018-03-08T20:54:02.961Z,52.40
2018-03-08T20:56:32.213Z,52.60
2018-03-08T20:59:01.243Z,52.70
2018-03-08T21:01:34.739Z,52.60
2018-03-08T21:04:05.112Z,52.50
2018-03-08T21:06:39.944Z,52.70
2018-03-08T21:09:08.936Z,52.70
2018-03-08T21:11:38.719Z,52.80
2018-03-08T21:14:07.775Z,52.60
2018-03-08T21:16:51.963Z,52.60
2018-03-08T21:19:25.745Z,52.70
2018-03-08T21:21:55.041Z,52.80
2018-03-08T21:24:27.206Z,52.60
2018-03-08T21:26:58.460Z,52.70
2018-03-08T21:29:31.602Z,53.30
2018-03-08T21:32:00.661Z,52.60
2018-03-08T21:34:29.674Z,52.40
2018-03-08T21:36:58.682Z,52.20
2018-03-08T21:39:28.497Z,51.90
2018-03-08T21:41:58.270Z,51.50
2018-03-08T21:44:27.317Z,51.80
2018-03-08T21:46:57.077Z,51.90
2018-03-08T21:49:26.645Z,51.90
2018-03-08T21:51:56.412Z,52.30
2018-03-08T21:54:25.410Z,52.30
2018-03-08T21:57:07.558Z,52.30
2018-03-08T21:59:36.970Z,52.40
2018-03-08T22:02:05.978Z,52.50
2018-03-08T22:04:36.016Z,52.40
2018-03-08T22:07:05.049Z,52.40
2018-03-08T22:09:39.215Z,52.30
2018-03-08T22:12:08.332Z,52.30
2018-03-08T22:14:37.490Z,52.30
2018-03-08T22:17:06.652Z,52.50
2018-03-08T22:19:35.748Z,52.60
2018-03-08T22:22:06.518Z,52.30
2018-03-08T22:24:36.468Z,52.30
2018-03-08T22:27:05.475Z,52.30
2018-03-08T22:29:34.638Z,52.20
2018-03-08T22:32:03.649Z,52.50
2018-03-08T22:34:32.673Z,52.60
2018-03-08T22:37:03.437Z,52.60
2018-03-08T22:39:32.499Z,52.40
2018-03-08T22:42:02.264Z,52.20
2018-03-08T22:44:31.474Z,52.30
2018-03-08T22:47:00.597Z,52.10
2018-03-08T22:49:29.599Z,52.10
2018-03-08T22:51:59.387Z,52.10
2018-03-08T22:54:28.519Z,52.10
2018-03-08T22:56:57.593Z,52.30
2018-03-08T22:59:33.170Z,52.50
2018-03-08T23:02:09.016Z,52.30
2018-03-08T23:04:38.176Z,52.50
2018-03-08T23:07:07.190Z,52.60
2018-03-08T23:09:36.962Z,53.00
2018-03-08T23:12:06.965Z,52.90
2018-03-08T23:14:35.969Z,53.20
2018-03-08T23:17:04.991Z,53.40
2018-03-08T23:19:34.038Z,53.20
2018-03-08T23:22:03.042Z,53.20
2018-03-08T23:24:32.040Z,53.40
2018-03-08T23:27:01.078Z,53.40
2018-03-08T23:29:30.100Z,53.20
2018-03-08T23:31:59.118Z,52.90
2018-03-08T23:34:28.163Z,52.60
2018-03-08T23:36:57.957Z,52.30
2018-03-08T23:39:27.723Z,52.90
2018-03-08T23:41:57.739Z,52.20
2018-03-08T23:44:26.750Z,52.20
2018-03-08T23:46:55.751Z,52.00
2018-03-08T23:49:24.812Z,52.20
2018-03-08T23:51:53.809Z,52.50
2018-03-08T23:54:22.814Z,52.60
2018-03-08T23:56:51.850Z,52.60
2018-03-08T23:59:21.617Z,52.80
